Lexa Maersk — OYYL2 — position and weather

sailwx.info

Track history (hours):
 
Tides and Currents Weather Stations Pressure Air Temp Water Temp Dewpoint Dewpoint Depression Visibility Wind Speed Wind Dir Waves Ship Positions

Lexa Maersk

Last reported at 2015-Aug-18 16:03 UTC. Time now 2015-Aug-29 20:54 UTC.
Position S 35°56' E 175°31'.
Warning: this ship's position is 11 days out of date.

Length 265.8 m; beam 37.3 m; draft 14 m.

Type: Ship (hazmat cat A). MMSI: 219979000.

Date/timePositionNaut miles runAvg speedWind from/ knotsBaromVisibWave heightAir tempDewpointWater temp
2015-Aug-18 16:03S 35°56' E 175°31'  
2015-Aug-15 20:16S 26°48' E 153°37'1318.4
2015-Aug-15 19:34S 26°44' E 153°23'1110.9
2015-Aug-15 18:34S 26°47' E 153°11'1615.4
2015-Aug-15 17:33S 27°03' E 153°16'1414.1
2015-Aug-15 16:33S 27°17' E 153°15'7 6.5
2015-Aug-15 15:32S 27°22' E 153°11'0 0.0
2015-Aug-15 14:29S 27°22' E 153°11'0 0.0
2015-Aug-15 13:26S 27°22' E 153°11'0 0.0
2015-Aug-15 12:32S 27°22' E 153°11'0 0.0
2015-Aug-15 04:26S 27°22' E 153°11'3 3.2
2015-Aug-15 03:28S 27°19' E 153°12'1010.5
2015-Aug-15 02:33S 27°13' E 153°20'1515.0
2015-Aug-15 01:33S 26°59' E 153°14'1514.8
2015-Aug-15 00:33S 26°44' E 153°11'1211.7
2015-Aug-14 23:34S 26°34' E 153°16'1616.4
2015-Aug-14 22:33S 26°17' E 153°18'  
2015-Aug-08 20:16S 05°17' E 114°31'1420.0
2015-Aug-08 19:33S 05°11' E 114°18'2019.9
2015-Aug-08 18:33S 05°05' E 113°59'4419.8
2015-Aug-08 16:20S 04°51' E 113°17'  
Track history (hours):
 
Tides and Currents Weather Stations Pressure Air Temp Water Temp Dewpoint Dewpoint Depression Visibility Wind Speed Wind Dir Waves Ship Positions

Lexa Maersk

Last reported at 2015-Aug-18 16:03 UTC. Time now 2015-Aug-29 20:54 UTC.
Position S 35°56' E 175°31'.
Warning: this ship's position is 11 days out of date.

Length 265.8 m; beam 37.3 m; draft 14 m.

Type: Ship (hazmat cat A). MMSI: 219979000.

Date/timePositionNaut miles runAvg speedWind from/ knotsBaromVisibWave heightAir tempDewpointWater temp
2015-Aug-18 16:03S 35°56' E 175°31'  
2015-Aug-15 20:16S 26°48' E 153°37'1318.4
2015-Aug-15 19:34S 26°44' E 153°23'1110.9
2015-Aug-15 18:34S 26°47' E 153°11'1615.4
2015-Aug-15 17:33S 27°03' E 153°16'1414.1
2015-Aug-15 16:33S 27°17' E 153°15'7 6.5
2015-Aug-15 15:32S 27°22' E 153°11'0 0.0
2015-Aug-15 14:29S 27°22' E 153°11'0 0.0
2015-Aug-15 13:26S 27°22' E 153°11'0 0.0
2015-Aug-15 12:32S 27°22' E 153°11'0 0.0
2015-Aug-15 04:26S 27°22' E 153°11'3 3.2
2015-Aug-15 03:28S 27°19' E 153°12'1010.5
2015-Aug-15 02:33S 27°13' E 153°20'1515.0
2015-Aug-15 01:33S 26°59' E 153°14'1514.8
2015-Aug-15 00:33S 26°44' E 153°11'1211.7
2015-Aug-14 23:34S 26°34' E 153°16'1616.4
2015-Aug-14 22:33S 26°17' E 153°18'  
2015-Aug-08 20:16S 05°17' E 114°31'1420.0
2015-Aug-08 19:33S 05°11' E 114°18'2019.9
2015-Aug-08 18:33S 05°05' E 113°59'4419.8
2015-Aug-08 16:20S 04°51' E 113°17'  

Dump ship's entire track history